createdAt,value
2023-04-18T00:02:03.558Z,100893.38
2023-04-18T00:07:08.720Z,100947.44
2023-04-18T00:18:33.315Z,100967.78
2023-04-18T00:23:54.036Z,100926.00
2023-04-18T00:28:53.570Z,100973.34
2023-04-18T00:34:03.033Z,100903.13
2023-04-18T00:39:03.173Z,100932.03
2023-04-18T00:44:07.022Z,100856.88
2023-04-18T00:49:22.782Z,100863.69
2023-04-18T00:54:24.468Z,100851.13
2023-04-18T00:59:27.683Z,100928.69
2023-04-18T01:04:31.682Z,100917.13
2023-04-18T01:09:32.500Z,100936.94
2023-04-18T01:14:37.129Z,100929.38
2023-04-18T01:19:47.020Z,100967.25
2023-04-18T01:24:55.550Z,100864.84
2023-04-18T01:29:59.731Z,100871.16
2023-04-18T01:35:02.430Z,100840.09
2023-04-18T01:40:05.223Z,100848.72
2023-04-18T01:45:03.344Z,100937.53
2023-04-18T01:50:10.418Z,100921.16
2023-04-18T01:55:28.045Z,100893.19
2023-04-18T02:00:27.485Z,100841.56
2023-04-18T02:05:26.657Z,100955.50
2023-04-18T02:10:27.729Z,100931.06
2023-04-18T02:15:29.178Z,100857.47
2023-04-18T02:20:31.196Z,100915.13
2023-04-18T02:25:33.186Z,100837.56
2023-04-18T02:30:33.103Z,100917.53
2023-04-18T02:35:37.553Z,100850.66
2023-04-18T02:40:40.283Z,100855.81
2023-04-18T02:45:45.602Z,100938.41
2023-04-18T02:50:54.846Z,100925.03
2023-04-18T02:55:53.139Z,100932.78
2023-04-18T03:01:05.891Z,100850.66
2023-04-18T03:06:29.964Z,100877.75
2023-04-18T03:11:32.281Z,100858.25
2023-04-18T03:16:29.989Z,100857.34
2023-04-18T03:21:33.628Z,100866.59
2023-04-18T03:26:39.085Z,100863.84
2023-04-18T03:31:40.902Z,100914.28
2023-04-18T03:36:38.980Z,100864.44
2023-04-18T03:41:38.039Z,100883.09
2023-04-18T03:46:38.710Z,100922.00
2023-04-18T03:51:47.318Z,100944.56
2023-04-18T03:56:45.533Z,100869.69
2023-04-18T04:01:43.932Z,100888.88
2023-04-18T04:06:45.268Z,100926.84
2023-04-18T04:11:42.874Z,100904.09
2023-04-18T04:16:44.190Z,100906.16
2023-04-18T04:21:43.589Z,100965.88
2023-04-18T04:26:44.251Z,100959.22
2023-04-18T04:31:59.478Z,100988.19
2023-04-18T04:37:02.981Z,100994.28
2023-04-18T04:42:03.936Z,101008.44
2023-04-18T04:47:10.015Z,100918.13
2023-04-18T04:52:09.410Z,100920.69
2023-04-18T04:57:08.713Z,100909.41
2023-04-18T05:02:05.916Z,100927.00
2023-04-18T05:07:06.881Z,100893.41
2023-04-18T05:12:04.668Z,100908.66
2023-04-18T05:17:04.480Z,101021.16
2023-04-18T05:22:03.643Z,100985.13
2023-04-18T05:27:06.920Z,100913.28
2023-04-18T05:32:10.757Z,100989.84
2023-04-18T05:37:08.117Z,100987.09
2023-04-18T05:42:07.428Z,101001.75
2023-04-18T05:47:06.929Z,101001.09
2023-04-18T05:52:04.334Z,101007.72
2023-04-18T05:57:04.542Z,100955.53
2023-04-18T06:02:02.737Z,100989.22
2023-04-18T06:07:02.188Z,100988.97
2023-04-18T06:12:04.388Z,100943.00
2023-04-18T06:17:02.364Z,101040.59
2023-04-18T06:22:00.855Z,100979.81
2023-04-18T06:26:58.190Z,101010.22
2023-04-18T06:31:57.208Z,101039.06
2023-04-18T06:36:55.647Z,100990.06
2023-04-18T06:41:52.762Z,100911.53
2023-04-18T06:46:59.316Z,101042.91
2023-04-18T06:52:01.470Z,100917.69
2023-04-18T06:56:59.057Z,101020.09
2023-04-18T07:01:56.362Z,100960.22
2023-04-18T07:06:56.332Z,101051.91
2023-04-18T07:11:56.300Z,100964.88
2023-04-18T07:16:57.334Z,100967.53
2023-04-18T07:21:55.493Z,100975.06
2023-04-18T07:26:56.363Z,100957.19
2023-04-18T07:37:22.151Z,100969.63
2023-04-18T07:42:26.545Z,101062.75
2023-04-18T07:47:47.297Z,101064.13
2023-04-18T07:53:04.219Z,101058.56
2023-04-18T07:58:24.006Z,100994.22
2023-04-18T08:04:04.491Z,101037.28
2023-04-18T08:14:57.509Z,100995.06
2023-04-18T08:20:06.764Z,101016.16
2023-04-18T08:25:07.461Z,101009.94
2023-04-18T08:30:08.009Z,100963.31
2023-04-18T08:35:10.919Z,100960.72
2023-04-18T08:40:08.763Z,101018.81
2023-04-18T08:45:14.444Z,101070.03
2023-04-18T08:50:16.249Z,100997.59
2023-04-18T08:55:14.970Z,101064.78
2023-04-18T09:00:14.434Z,100988.06
2023-04-18T09:05:13.381Z,101002.06
2023-04-18T09:10:11.998Z,101015.63
2023-04-18T09:15:14.046Z,101006.56
2023-04-18T09:20:12.387Z,100995.03
2023-04-18T09:25:09.820Z,101056.34
2023-04-18T09:30:08.571Z,100996.22
2023-04-18T09:35:08.155Z,100999.19
2023-04-18T09:40:27.031Z,101057.16
2023-04-18T09:45:30.009Z,100967.13
2023-04-18T09:50:30.879Z,101032.63
2023-04-18T09:55:31.443Z,101004.56
2023-04-18T10:00:30.861Z,100988.44
2023-04-18T10:05:36.262Z,100967.50
2023-04-18T10:10:39.081Z,100999.91
2023-04-18T10:15:37.549Z,101051.06
2023-04-18T10:20:38.856Z,101049.00
2023-04-18T10:25:51.950Z,101051.94
2023-04-18T10:31:02.392Z,101027.66
2023-04-18T10:36:20.881Z,101028.31
2023-04-18T10:41:29.175Z,100957.41
2023-04-18T10:46:32.281Z,101049.19
2023-04-18T10:51:54.758Z,100981.22
2023-04-18T10:56:58.056Z,100964.00
2023-04-18T11:01:59.585Z,101028.53
2023-04-18T11:06:58.242Z,101044.13
2023-04-18T11:12:10.145Z,100959.56
2023-04-18T11:17:20.078Z,101011.31
2023-04-18T11:22:20.881Z,100966.78
2023-04-18T11:27:18.159Z,100978.56
2023-04-18T11:32:23.836Z,101027.47
2023-04-18T11:37:37.069Z,100951.66
2023-04-18T11:42:45.279Z,101029.94
2023-04-18T11:48:04.205Z,101015.19
2023-04-18T11:53:02.154Z,101036.34
2023-04-18T11:58:00.770Z,101038.94
2023-04-18T12:09:00.536Z,101044.66
2023-04-18T12:14:02.496Z,101009.63
2023-04-18T12:19:06.028Z,100954.72
2023-04-18T12:24:19.312Z,100999.22
2023-04-18T12:29:29.601Z,101001.69
2023-04-18T12:34:39.824Z,101019.94
2023-04-18T12:39:53.968Z,100998.31
2023-04-18T12:45:25.665Z,100983.69
2023-04-18T12:50:40.765Z,101018.38
2023-04-18T12:55:48.572Z,101003.50
2023-04-18T13:01:13.937Z,100946.88
2023-04-18T13:12:13.053Z,100994.75
2023-04-18T13:23:02.667Z,100933.69
2023-04-18T13:28:04.047Z,101006.88
2023-04-18T13:33:08.544Z,100986.34
2023-04-18T13:38:25.417Z,100997.94
2023-04-18T13:43:32.171Z,100942.66
2023-04-18T13:48:43.966Z,100991.13
2023-04-18T14:00:21.936Z,100917.84
2023-04-18T14:05:32.720Z,100942.31
2023-04-18T14:11:14.042Z,100974.34
2023-04-18T14:16:32.568Z,100926.41
2023-04-18T14:21:39.117Z,100948.78
2023-04-18T14:26:44.148Z,100939.94
2023-04-18T14:31:47.419Z,100896.81
2023-04-18T14:36:49.194Z,100949.72
2023-04-18T14:41:49.701Z,100867.91
2023-04-18T14:46:56.204Z,100869.25
2023-04-18T14:52:18.644Z,100948.53
2023-04-18T14:57:24.984Z,100961.88
2023-04-18T15:08:01.856Z,100934.16
2023-04-18T15:13:02.063Z,100859.06
2023-04-18T15:18:10.158Z,100945.72
2023-04-18T15:23:15.965Z,100866.81
2023-04-18T15:28:13.932Z,100886.00
2023-04-18T15:33:15.422Z,100852.56
2023-04-18T15:38:21.508Z,100897.59
2023-04-18T15:43:18.640Z,100871.22
2023-04-18T15:48:45.168Z,100849.25
2023-04-18T15:53:45.653Z,100920.09
2023-04-18T15:58:46.043Z,100896.97
2023-04-18T16:03:47.570Z,100916.19
2023-04-18T16:08:45.294Z,100835.91
2023-04-18T16:13:43.230Z,100858.38
2023-04-18T16:18:47.313Z,100864.84
2023-04-18T16:23:53.546Z,100838.44
2023-04-18T16:28:57.970Z,100884.75
2023-04-18T16:34:02.905Z,100868.41
2023-04-18T16:39:16.886Z,100884.31
2023-04-18T16:44:42.358Z,100866.72
2023-04-18T16:49:43.209Z,100941.97
2023-04-18T16:54:53.941Z,100948.94
2023-04-18T17:05:32.825Z,100953.34
2023-04-18T17:10:35.678Z,100944.03
2023-04-18T17:15:46.117Z,100947.53
2023-04-18T17:20:49.363Z,100883.59
2023-04-18T17:25:49.584Z,100866.13
2023-04-18T17:30:50.340Z,100948.91
2023-04-18T17:36:09.774Z,100877.16
2023-04-18T17:41:27.896Z,100928.00
2023-04-18T17:46:32.022Z,100918.69
2023-04-18T17:51:32.059Z,100910.94
2023-04-18T17:56:40.617Z,100925.03
2023-04-18T18:02:02.078Z,100968.91
2023-04-18T18:07:15.567Z,100977.69
2023-04-18T18:12:22.710Z,100961.84
2023-04-18T18:17:32.956Z,100914.06
2023-04-18T18:23:10.034Z,100915.25
2023-04-18T18:28:14.732Z,100940.16
2023-04-18T18:33:19.174Z,100926.41
2023-04-18T18:38:19.414Z,100923.22
2023-04-18T18:43:26.841Z,100930.59
2023-04-18T18:48:27.494Z,100915.22
2023-04-18T18:53:26.422Z,101010.75
2023-04-18T18:58:24.810Z,100963.19
2023-04-18T19:04:08.681Z,100990.28
2023-04-18T19:09:13.399Z,101007.94
2023-04-18T19:14:31.086Z,101008.41
2023-04-18T19:19:42.576Z,100927.78
2023-04-18T19:41:48.964Z,100931.63
2023-04-18T19:46:51.686Z,100932.53
2023-04-18T19:51:54.978Z,100973.03
2023-04-18T19:56:59.276Z,101004.34
2023-04-18T20:02:07.081Z,100996.88
2023-04-18T20:07:04.043Z,100992.13
2023-04-18T20:12:01.480Z,100921.28
2023-04-18T20:17:28.111Z,100919.97
2023-04-18T20:22:34.297Z,100934.00
2023-04-18T20:27:38.570Z,100943.44
2023-04-18T20:32:40.320Z,100904.16
2023-04-18T20:37:40.855Z,100909.88
2023-04-18T20:42:38.657Z,100904.00
2023-04-18T20:47:36.365Z,100932.66
2023-04-18T20:52:34.405Z,100972.31
2023-04-18T20:57:33.370Z,100964.28
2023-04-18T21:02:31.191Z,100897.09
2023-04-18T21:07:31.635Z,100889.81
2023-04-18T21:12:29.634Z,100937.31
2023-04-18T21:17:26.787Z,100914.13
2023-04-18T21:22:40.027Z,100923.09
2023-04-18T21:27:40.612Z,100935.88
2023-04-18T21:32:38.835Z,100937.81
2023-04-18T21:37:41.500Z,100930.53
2023-04-18T21:42:46.542Z,100938.19
2023-04-18T21:47:54.144Z,100940.00
2023-04-18T21:52:51.695Z,100928.84
2023-04-18T21:57:53.865Z,100959.56
2023-04-18T22:02:53.660Z,100922.81
2023-04-18T22:07:58.131Z,100848.03
2023-04-18T22:12:58.264Z,100925.38
2023-04-18T22:17:58.540Z,100905.88
2023-04-18T22:23:02.120Z,100847.94
2023-04-18T22:28:06.909Z,100933.28
2023-04-18T22:33:20.431Z,100929.47
2023-04-18T22:38:31.299Z,100853.66
2023-04-18T22:43:51.141Z,100914.56
2023-04-18T22:48:52.365Z,100845.97
2023-04-18T22:53:55.720Z,100900.06
2023-04-18T22:59:20.734Z,100832.41
2023-04-18T23:04:36.435Z,100867.69
2023-04-18T23:09:56.522Z,100925.09
2023-04-18T23:23:19.951Z,100902.41
